createdAt,value
2022-11-16T00:01:25.236Z,4.80
2022-11-16T00:03:38.950Z,4.80
2022-11-16T00:05:52.210Z,5.50
2022-11-16T00:08:05.932Z,4.40
2022-11-16T00:10:19.560Z,4.00
2022-11-16T00:12:32.908Z,3.80
2022-11-16T00:14:46.261Z,5.30
2022-11-16T00:16:59.469Z,3.90
2022-11-16T00:19:14.400Z,5.50
2022-11-16T00:21:27.711Z,4.90
2022-11-16T00:23:42.087Z,5.90
2022-11-16T00:25:55.634Z,4.70
2022-11-16T00:28:09.152Z,4.50
2022-11-16T00:30:22.891Z,4.70
2022-11-16T00:32:36.346Z,4.00
2022-11-16T00:34:49.661Z,5.10
2022-11-16T00:37:02.953Z,4.70
2022-11-16T00:39:17.567Z,4.40
2022-11-16T00:41:32.840Z,5.70
2022-11-16T00:43:46.141Z,5.40
2022-11-16T00:46:00.043Z,4.10
2022-11-16T00:48:14.002Z,4.90
2022-11-16T00:50:27.426Z,6.70
2022-11-16T00:52:40.911Z,4.90
2022-11-16T00:54:54.171Z,6.00
2022-11-16T00:57:07.518Z,5.60
2022-11-16T00:59:20.775Z,5.80
2022-11-16T01:01:34.207Z,4.20
2022-11-16T01:03:48.899Z,5.00
2022-11-16T01:06:06.543Z,4.70
2022-11-16T01:08:19.910Z,5.70
2022-11-16T01:10:34.878Z,5.10
2022-11-16T01:12:49.188Z,6.30
2022-11-16T01:15:02.763Z,4.80
2022-11-16T01:17:16.540Z,6.80
2022-11-16T01:19:29.868Z,6.20
2022-11-16T01:21:43.280Z,6.20
2022-11-16T01:23:58.274Z,4.40
2022-11-16T01:26:12.016Z,5.50
2022-11-16T01:28:27.370Z,4.10
2022-11-16T01:30:40.778Z,4.70
2022-11-16T01:32:56.040Z,4.80
2022-11-16T01:35:10.022Z,5.70
2022-11-16T01:37:23.709Z,6.40
2022-11-16T01:39:37.712Z,5.90
2022-11-16T01:41:51.212Z,5.00
2022-11-16T01:44:06.063Z,6.30
2022-11-16T01:46:33.043Z,6.20
2022-11-16T01:48:47.745Z,12.90
2022-11-16T01:51:01.745Z,6.30
2022-11-16T01:53:17.332Z,4.80
2022-11-16T01:55:40.741Z,5.40
2022-11-16T01:58:21.697Z,4.90
2022-11-16T02:03:03.538Z,5.40
2022-11-16T02:05:36.955Z,7.00
2022-11-16T02:08:17.774Z,8.40
2022-11-16T02:10:47.242Z,4.60
2022-11-16T02:13:17.152Z,3.70
2022-11-16T02:15:36.832Z,5.40
2022-11-16T02:18:18.885Z,5.80
2022-11-16T02:20:57.160Z,5.00
2022-11-16T02:23:30.073Z,4.00
2022-11-16T02:28:18.163Z,5.10
2022-11-16T02:30:31.455Z,3.60
2022-11-16T02:32:52.099Z,5.30
2022-11-16T02:35:11.395Z,6.80
2022-11-16T02:37:27.894Z,5.10
2022-11-16T02:39:43.638Z,5.50
2022-11-16T02:41:58.138Z,5.40
2022-11-16T02:44:15.614Z,6.60
2022-11-16T02:46:34.717Z,6.10
2022-11-16T02:48:52.181Z,4.80
2022-11-16T02:51:07.782Z,7.00
2022-11-16T02:53:21.618Z,7.50
2022-11-16T02:55:39.901Z,6.30
2022-11-16T02:57:58.012Z,7.10
2022-11-16T03:00:15.740Z,5.10
2022-11-16T03:02:33.783Z,5.40
2022-11-16T03:04:50.806Z,6.60
2022-11-16T03:07:07.621Z,6.40
2022-11-16T03:09:25.044Z,4.70
2022-11-16T03:11:57.958Z,4.60
2022-11-16T03:14:14.890Z,5.80
2022-11-16T03:16:35.017Z,4.20
2022-11-16T03:18:50.665Z,6.50
2022-11-16T03:21:13.548Z,5.70
2022-11-16T03:23:29.083Z,5.90
2022-11-16T03:25:46.876Z,4.70
2022-11-16T03:28:05.800Z,3.70
2022-11-16T03:30:23.984Z,5.70
2022-11-16T03:32:45.456Z,5.00
2022-11-16T03:35:04.177Z,5.40
2022-11-16T03:37:18.900Z,4.30
2022-11-16T03:39:37.249Z,4.50
2022-11-16T03:41:53.277Z,4.40
2022-11-16T03:44:08.129Z,6.80
2022-11-16T03:46:22.344Z,5.40
2022-11-16T03:48:41.527Z,4.90
2022-11-16T03:50:59.219Z,4.40
2022-11-16T03:53:13.557Z,4.50
2022-11-16T03:55:26.944Z,4.60
2022-11-16T03:57:40.571Z,7.30
2022-11-16T03:59:54.107Z,5.10
2022-11-16T04:02:07.299Z,5.80
2022-11-16T04:04:36.418Z,4.50
2022-11-16T04:07:06.324Z,4.90
2022-11-16T04:09:36.000Z,5.40
2022-11-16T04:12:06.693Z,6.00
2022-11-16T04:14:43.115Z,6.40
2022-11-16T04:17:14.613Z,6.90
2022-11-16T04:19:45.492Z,4.60
2022-11-16T04:22:20.578Z,3.00
2022-11-16T04:24:38.340Z,5.00
2022-11-16T04:27:10.341Z,5.50
2022-11-16T04:29:25.172Z,5.00
2022-11-16T04:31:54.463Z,6.30
2022-11-16T04:34:24.142Z,6.00
2022-11-16T04:36:55.701Z,6.00
2022-11-16T04:39:09.187Z,5.80
2022-11-16T04:41:38.875Z,4.80
2022-11-16T04:43:52.302Z,5.50
2022-11-16T04:46:23.986Z,3.10
2022-11-16T04:48:37.561Z,5.70
2022-11-16T04:50:51.761Z,4.10
2022-11-16T04:53:05.279Z,4.90
2022-11-16T04:55:26.081Z,5.10
2022-11-16T04:57:39.624Z,6.20
2022-11-16T04:59:53.668Z,4.20
2022-11-16T05:02:14.058Z,5.60
2022-11-16T05:04:32.522Z,3.90
2022-11-16T05:06:47.124Z,4.10
2022-11-16T05:09:00.790Z,4.70
2022-11-16T05:11:14.442Z,4.60
2022-11-16T05:13:28.348Z,7.40
2022-11-16T05:15:41.605Z,4.00
2022-11-16T05:17:56.878Z,4.80
2022-11-16T05:20:30.111Z,6.90
2022-11-16T05:22:47.829Z,9.70
2022-11-16T05:25:01.753Z,11.50
2022-11-16T05:27:18.036Z,7.30
2022-11-16T05:29:32.282Z,6.80
2022-11-16T05:31:45.765Z,5.40
2022-11-16T05:33:59.201Z,8.10
2022-11-16T05:36:14.937Z,19.60
2022-11-16T05:38:28.591Z,7.40
2022-11-16T05:40:43.093Z,3.90
2022-11-16T05:42:57.013Z,20.50
2022-11-16T05:45:11.662Z,23.00
2022-11-16T05:47:25.875Z,5.30
2022-11-16T05:49:39.882Z,6.00
2022-11-16T05:51:54.360Z,5.30
2022-11-16T05:54:09.146Z,5.50
2022-11-16T05:56:22.900Z,5.20
2022-11-16T05:58:36.880Z,7.80
2022-11-16T06:00:52.609Z,6.00
2022-11-16T06:03:06.121Z,5.00
2022-11-16T06:05:19.854Z,4.90
2022-11-16T06:07:33.602Z,5.00
2022-11-16T06:09:47.652Z,7.10
2022-11-16T06:12:04.640Z,5.70
2022-11-16T06:14:18.965Z,4.50
2022-11-16T06:16:32.507Z,5.30
2022-11-16T06:18:48.486Z,4.70
2022-11-16T06:21:05.114Z,4.80
2022-11-16T06:23:18.439Z,6.00
2022-11-16T06:25:32.210Z,5.70
2022-11-16T06:27:45.531Z,4.50
2022-11-16T06:30:02.124Z,4.20
2022-11-16T06:32:16.042Z,4.10
2022-11-16T06:34:29.300Z,3.90
2022-11-16T06:36:42.539Z,6.20
2022-11-16T06:38:55.824Z,3.80
2022-11-16T06:41:09.435Z,3.50
2022-11-16T06:43:26.886Z,4.30
2022-11-16T06:45:40.480Z,5.50
2022-11-16T06:47:53.832Z,3.70
2022-11-16T06:50:07.916Z,4.80
2022-11-16T06:52:21.304Z,4.50
2022-11-16T06:54:34.677Z,6.00
2022-11-16T06:56:48.844Z,4.60
2022-11-16T06:59:04.017Z,4.20
2022-11-16T07:01:18.527Z,6.90
2022-11-16T07:03:32.958Z,5.30
2022-11-16T07:05:48.015Z,5.90
2022-11-16T07:08:02.577Z,4.20
2022-11-16T07:10:17.224Z,6.20
2022-11-16T07:12:30.767Z,4.00
2022-11-16T07:14:44.330Z,5.10
2022-11-16T07:17:00.343Z,3.80
2022-11-16T07:19:15.464Z,5.10
2022-11-16T07:21:28.998Z,5.80
2022-11-16T07:23:43.980Z,4.30
2022-11-16T07:26:02.883Z,4.90
2022-11-16T07:28:23.544Z,4.90
2022-11-16T07:30:36.693Z,4.10
2022-11-16T07:32:59.989Z,4.00
2022-11-16T07:35:36.214Z,4.60
2022-11-16T07:37:49.654Z,5.20
2022-11-16T07:40:03.413Z,4.70
2022-11-16T07:42:16.987Z,5.30
2022-11-16T07:44:53.135Z,3.40
2022-11-16T07:47:06.426Z,4.50
2022-11-16T07:49:23.216Z,6.80
2022-11-16T07:51:43.001Z,4.70
2022-11-16T07:54:03.957Z,4.60
2022-11-16T07:56:17.773Z,4.40
2022-11-16T07:58:31.658Z,4.30
2022-11-16T08:00:45.314Z,4.60
2022-11-16T08:03:00.142Z,4.30
2022-11-16T08:05:14.858Z,4.50
2022-11-16T08:07:28.382Z,4.20
2022-11-16T08:09:44.349Z,4.70
2022-11-16T08:12:00.231Z,6.20
2022-11-16T08:14:14.850Z,4.90
2022-11-16T08:16:28.996Z,4.40
2022-11-16T08:18:49.938Z,3.80
2022-11-16T08:21:04.970Z,4.00
2022-11-16T08:23:18.496Z,2.80
2022-11-16T08:25:32.287Z,3.40
2022-11-16T08:27:45.777Z,3.30
2022-11-16T08:29:59.342Z,6.80
2022-11-16T08:32:12.834Z,5.40
2022-11-16T08:34:26.315Z,22.50
2022-11-16T08:36:43.973Z,4.30
2022-11-16T08:38:59.250Z,4.00
2022-11-16T08:41:14.715Z,3.20
2022-11-16T08:43:28.452Z,4.80
2022-11-16T08:45:41.967Z,4.00
2022-11-16T08:48:03.448Z,4.20
2022-11-16T08:50:17.949Z,6.00
2022-11-16T08:52:31.338Z,5.30
2022-11-16T08:54:45.076Z,3.90
2022-11-16T08:56:58.499Z,3.80
2022-11-16T08:59:11.836Z,4.40
2022-11-16T09:01:30.438Z,4.30
2022-11-16T09:03:44.007Z,4.90
2022-11-16T09:05:57.268Z,4.00
2022-11-16T09:08:10.791Z,5.00
2022-11-16T09:10:26.368Z,5.10
2022-11-16T09:12:40.260Z,4.40
2022-11-16T09:14:53.630Z,4.90
2022-11-16T09:17:07.110Z,3.40
2022-11-16T09:19:21.670Z,5.50
2022-11-16T09:21:38.319Z,4.70
2022-11-16T09:23:52.310Z,5.70
2022-11-16T09:26:07.485Z,4.60
2022-11-16T09:28:21.530Z,6.20
2022-11-16T09:30:34.946Z,4.10
2022-11-16T09:32:48.272Z,6.90
2022-11-16T09:35:01.572Z,5.00
2022-11-16T09:37:14.920Z,3.70
2022-11-16T09:39:31.520Z,6.40
2022-11-16T09:42:01.797Z,4.70
2022-11-16T09:44:27.715Z,5.60
2022-11-16T09:46:44.840Z,4.80
2022-11-16T09:49:00.009Z,6.30
2022-11-16T09:51:15.944Z,107.70
2022-11-16T09:53:37.180Z,44.70
2022-11-16T09:55:54.824Z,11.50
2022-11-16T09:58:15.548Z,7.50
2022-11-16T10:00:30.853Z,25.10
2022-11-16T10:02:51.297Z,9.60
2022-11-16T10:05:16.692Z,12.70
2022-11-16T10:07:35.394Z,5.30
2022-11-16T10:09:50.139Z,7.00
2022-11-16T10:12:19.237Z,8.00
2022-11-16T10:14:58.821Z,11.30
2022-11-16T10:17:21.089Z,6.20
2022-11-16T10:19:42.777Z,9.40
2022-11-16T10:22:01.803Z,37.60
2022-11-16T10:24:35.491Z,9.30
2022-11-16T10:26:54.995Z,12.90
2022-11-16T10:29:25.385Z,5.50
2022-11-16T10:31:56.029Z,7.20
2022-11-16T10:34:15.122Z,6.90
2022-11-16T10:36:32.969Z,8.10
2022-11-16T10:38:47.809Z,3.70
2022-11-16T10:41:06.265Z,4.10
2022-11-16T10:43:20.635Z,5.10
2022-11-16T10:45:41.930Z,3.60
2022-11-16T10:48:00.446Z,3.50
2022-11-16T10:50:33.110Z,5.10
2022-11-16T10:52:46.927Z,6.00
2022-11-16T10:55:00.138Z,3.70
2022-11-16T10:57:19.826Z,4.20
2022-11-16T10:59:44.997Z,4.30
2022-11-16T11:01:58.969Z,3.70
2022-11-16T11:04:26.623Z,5.00
2022-11-16T11:06:44.944Z,5.70
2022-11-16T11:08:58.155Z,4.90
2022-11-16T11:11:41.469Z,3.60
2022-11-16T11:16:23.199Z,4.50
2022-11-16T11:18:36.653Z,4.50
2022-11-16T11:20:52.272Z,6.20
2022-11-16T11:23:14.523Z,3.80
2022-11-16T11:25:32.153Z,4.10
2022-11-16T11:27:45.867Z,4.20
2022-11-16T11:30:01.757Z,5.30
2022-11-16T11:32:24.416Z,7.90
2022-11-16T11:34:44.017Z,8.70
2022-11-16T11:37:00.686Z,12.90
2022-11-16T11:39:30.019Z,12.70
2022-11-16T11:41:47.554Z,9.40
2022-11-16T11:44:10.234Z,6.50
2022-11-16T11:47:06.447Z,11.50
2022-11-16T11:49:12.378Z,7.00
2022-11-16T11:51:31.086Z,9.20
2022-11-16T11:53:55.407Z,9.30
2022-11-16T11:56:09.449Z,8.20
2022-11-16T11:58:23.918Z,7.10
2022-11-16T12:00:45.626Z,11.20
2022-11-16T12:03:21.643Z,10.90
2022-11-16T12:05:56.559Z,7.40
2022-11-16T12:08:27.627Z,6.50
2022-11-16T12:10:52.288Z,5.60
2022-11-16T12:13:24.671Z,5.90
2022-11-16T12:15:54.486Z,4.50
2022-11-16T12:18:17.861Z,5.10
2022-11-16T12:20:41.457Z,5.50
2022-11-16T12:23:18.242Z,5.30
2022-11-16T12:25:41.022Z,6.90
2022-11-16T12:28:07.771Z,4.20
2022-11-16T12:30:24.620Z,4.10
2022-11-16T12:32:59.109Z,3.70
2022-11-16T12:35:33.553Z,5.00
2022-11-16T12:37:53.709Z,7.60
2022-11-16T12:40:24.873Z,3.90
2022-11-16T12:42:49.772Z,11.00
2022-11-16T12:45:22.062Z,10.00
2022-11-16T12:47:43.943Z,6.80
2022-11-16T12:50:20.168Z,5.60
2022-11-16T12:53:00.983Z,4.00
2022-11-16T12:55:32.999Z,2.80
2022-11-16T12:57:55.215Z,5.50
2022-11-16T13:00:13.565Z,4.20
2022-11-16T13:02:39.658Z,5.80
2022-11-16T13:04:59.571Z,3.70
2022-11-16T13:07:17.034Z,3.20
2022-11-16T13:09:34.272Z,3.60
2022-11-16T13:11:51.623Z,3.10
2022-11-16T13:14:08.711Z,4.90
2022-11-16T13:16:22.972Z,5.80
2022-11-16T13:18:41.368Z,4.70
2022-11-16T13:20:59.682Z,4.60
2022-11-16T13:23:19.153Z,5.60
2022-11-16T13:25:40.366Z,2.50
2022-11-16T13:27:59.240Z,2.00
2022-11-16T13:30:22.557Z,3.00
2022-11-16T13:32:48.902Z,3.60
2022-11-16T13:35:02.692Z,4.20
2022-11-16T13:37:47.272Z,4.60
2022-11-16T13:40:35.266Z,4.20
2022-11-16T13:43:02.178Z,4.20
2022-11-16T13:45:24.205Z,4.80
2022-11-16T13:47:37.788Z,2.80
2022-11-16T13:49:57.830Z,3.60
2022-11-16T13:52:46.230Z,3.40
2022-11-16T13:54:48.247Z,4.70
2022-11-16T13:57:03.242Z,6.00
2022-11-16T13:59:27.372Z,2.50
2022-11-16T14:02:03.043Z,3.60
2022-11-16T14:04:44.289Z,4.30
2022-11-16T14:07:05.336Z,4.00
2022-11-16T14:09:52.477Z,6.70
2022-11-16T14:12:41.962Z,3.80
2022-11-16T14:15:17.085Z,4.70
2022-11-16T14:17:55.706Z,2.80
2022-11-16T14:20:09.582Z,4.00
2022-11-16T14:22:50.791Z,2.10
2022-11-16T14:25:12.012Z,3.30
2022-11-16T14:27:32.886Z,4.10
2022-11-16T14:29:59.553Z,4.20
2022-11-16T14:32:25.644Z,3.10
2022-11-16T14:34:47.195Z,2.90
2022-11-16T14:37:01.634Z,4.20
2022-11-16T14:39:34.343Z,2.70
2022-11-16T14:41:50.109Z,4.40
2022-11-16T14:44:03.497Z,3.70
2022-11-16T14:46:24.577Z,4.00
2022-11-16T14:48:45.490Z,3.40
2022-11-16T14:51:11.874Z,2.60
2022-11-16T14:53:25.890Z,2.70
2022-11-16T14:55:47.332Z,2.50
2022-11-16T15:00:31.649Z,3.50
2022-11-16T15:02:51.376Z,4.60
2022-11-16T15:05:05.411Z,14.10
2022-11-16T15:07:20.360Z,7.00
2022-11-16T15:09:37.301Z,3.70
2022-11-16T15:12:10.622Z,4.10
2022-11-16T15:14:28.528Z,4.90
2022-11-16T15:16:54.989Z,2.80
2022-11-16T15:19:15.634Z,3.60
2022-11-16T15:21:30.498Z,2.70
2022-11-16T15:24:15.646Z,9.40
2022-11-16T15:26:28.245Z,2.80
2022-11-16T15:28:49.752Z,4.30
2022-11-16T15:31:05.705Z,4.10
2022-11-16T15:33:26.544Z,3.90
2022-11-16T15:35:41.675Z,3.00
2022-11-16T15:38:03.341Z,5.60
2022-11-16T15:40:16.665Z,3.10
2022-11-16T15:42:32.740Z,4.40
2022-11-16T15:44:47.004Z,3.40
2022-11-16T15:47:01.883Z,4.90
2022-11-16T15:49:24.261Z,2.70
2022-11-16T15:51:37.575Z,5.30
2022-11-16T15:53:52.235Z,4.90
2022-11-16T15:56:05.934Z,3.10
2022-11-16T15:58:27.650Z,3.70
2022-11-16T16:00:42.594Z,4.50
2022-11-16T16:02:58.279Z,3.40
2022-11-16T16:05:24.090Z,4.10
2022-11-16T16:07:51.414Z,4.40
2022-11-16T16:10:25.485Z,3.70
2022-11-16T16:12:50.297Z,3.50
2022-11-16T16:15:27.281Z,4.10
2022-11-16T16:17:40.694Z,3.70
2022-11-16T16:20:00.562Z,4.10
2022-11-16T16:22:28.737Z,4.90
2022-11-16T16:24:47.140Z,3.40
2022-11-16T16:27:00.494Z,4.70
2022-11-16T16:29:13.858Z,4.90
2022-11-16T16:31:27.360Z,4.40
2022-11-16T16:33:41.558Z,4.40
2022-11-16T16:35:54.948Z,3.40
2022-11-16T16:38:16.092Z,3.70
2022-11-16T16:40:29.615Z,4.30
2022-11-16T16:42:44.370Z,2.50
2022-11-16T16:44:59.252Z,3.20
2022-11-16T16:47:13.973Z,3.40
2022-11-16T16:49:32.632Z,4.80
2022-11-16T16:51:50.380Z,2.70
2022-11-16T16:54:10.584Z,3.50
2022-11-16T16:56:28.025Z,3.60
2022-11-16T16:58:51.956Z,4.40
2022-11-16T17:01:16.646Z,2.70
2022-11-16T17:03:36.883Z,4.00
2022-11-16T17:05:54.316Z,6.00
2022-11-16T17:08:12.254Z,4.40
2022-11-16T17:10:28.770Z,3.20
2022-11-16T17:12:44.868Z,3.20
2022-11-16T17:15:02.248Z,4.90
2022-11-16T17:17:26.450Z,4.60
2022-11-16T17:19:42.667Z,4.00
2022-11-16T17:22:02.625Z,6.80
2022-11-16T17:24:22.115Z,4.40
2022-11-16T17:26:38.374Z,5.00
2022-11-16T17:29:00.730Z,3.40
2022-11-16T17:31:18.980Z,5.30
2022-11-16T17:33:43.919Z,3.30
2022-11-16T17:36:10.984Z,4.70
2022-11-16T17:38:25.388Z,6.10
2022-11-16T17:40:45.538Z,3.20
2022-11-16T17:43:07.939Z,5.00
2022-11-16T17:45:34.272Z,3.50
2022-11-16T17:47:55.853Z,2.40
2022-11-16T17:50:17.634Z,3.70
2022-11-16T17:52:35.791Z,4.50
2022-11-16T17:55:06.465Z,4.50
2022-11-16T17:57:25.907Z,3.30
2022-11-16T17:59:42.286Z,5.90
2022-11-16T18:01:56.475Z,8.70
2022-11-16T18:04:13.757Z,8.30
2022-11-16T18:06:30.057Z,6.60
2022-11-16T18:08:44.874Z,7.20
2022-11-16T18:10:58.801Z,11.50
2022-11-16T18:13:12.688Z,21.90
2022-11-16T18:15:28.778Z,42.90
2022-11-16T18:17:43.717Z,30.00
2022-11-16T18:19:57.126Z,52.70
2022-11-16T18:22:10.494Z,64.90
2022-11-16T18:24:23.977Z,77.10
2022-11-16T18:26:38.016Z,53.70
2022-11-16T18:28:52.972Z,42.80
2022-11-16T18:31:11.696Z,35.30
2022-11-16T18:33:30.789Z,30.90
2022-11-16T18:35:44.119Z,31.30
2022-11-16T18:37:57.783Z,33.30
2022-11-16T18:40:13.473Z,21.60
2022-11-16T18:42:26.788Z,25.30
2022-11-16T18:44:40.114Z,25.10
2022-11-16T18:46:53.357Z,42.40
2022-11-16T18:49:06.519Z,49.30
2022-11-16T18:51:20.701Z,35.30
2022-11-16T18:53:35.541Z,32.60
2022-11-16T18:55:57.584Z,24.00
2022-11-16T18:58:28.858Z,29.00
2022-11-16T19:00:44.623Z,25.00
2022-11-16T19:02:57.926Z,28.60
2022-11-16T19:05:12.085Z,18.10
2022-11-16T19:07:25.422Z,21.90
2022-11-16T19:09:38.669Z,20.30
2022-11-16T19:11:52.876Z,18.90
2022-11-16T19:14:08.732Z,33.80
2022-11-16T19:16:22.044Z,23.20
2022-11-16T19:18:35.312Z,30.90
2022-11-16T19:20:48.534Z,30.10
2022-11-16T19:23:03.355Z,20.80
2022-11-16T19:25:17.146Z,15.80
2022-11-16T19:27:30.449Z,22.00
2022-11-16T19:29:43.678Z,23.10
2022-11-16T19:31:56.968Z,24.60
2022-11-16T19:34:11.496Z,17.70
2022-11-16T19:36:25.287Z,15.10
2022-11-16T19:38:38.725Z,26.00
2022-11-16T19:40:52.975Z,36.90
2022-11-16T19:43:06.212Z,15.60
2022-11-16T19:45:19.877Z,28.80
2022-11-16T19:47:33.252Z,14.60
2022-11-16T19:49:47.418Z,26.50
2022-11-16T19:52:01.391Z,29.60
2022-11-16T19:54:16.102Z,20.70
2022-11-16T19:56:30.374Z,23.60
2022-11-16T19:58:44.250Z,22.90
2022-11-16T20:01:03.335Z,16.00
2022-11-16T20:03:16.579Z,17.90
2022-11-16T20:05:31.359Z,18.00
2022-11-16T20:07:46.013Z,24.00
2022-11-16T20:09:59.821Z,14.90
2022-11-16T20:12:13.330Z,27.60
2022-11-16T20:14:26.664Z,32.70
2022-11-16T20:16:41.808Z,23.00
2022-11-16T20:18:55.809Z,25.70
2022-11-16T20:21:10.298Z,26.30
2022-11-16T20:23:23.517Z,21.10
2022-11-16T20:25:36.851Z,26.50
2022-11-16T20:27:50.135Z,15.80
2022-11-16T20:30:09.050Z,18.10
2022-11-16T20:32:23.516Z,25.80
2022-11-16T20:34:36.793Z,12.00
2022-11-16T20:36:52.147Z,20.30
2022-11-16T20:39:05.707Z,29.40
2022-11-16T20:41:19.657Z,21.50
2022-11-16T20:43:33.428Z,30.70
2022-11-16T20:45:46.822Z,16.30
2022-11-16T20:48:02.246Z,14.30
2022-11-16T20:50:16.026Z,20.50
2022-11-16T20:52:29.209Z,11.40
2022-11-16T20:54:42.544Z,15.00
2022-11-16T20:56:55.814Z,20.10
2022-11-16T20:59:09.065Z,20.90
2022-11-16T21:01:29.287Z,24.80
2022-11-16T21:03:43.663Z,21.80
2022-11-16T21:05:58.463Z,17.30
2022-11-16T21:08:12.101Z,17.90
2022-11-16T21:10:26.102Z,18.30
2022-11-16T21:12:55.832Z,14.60
2022-11-16T21:15:09.737Z,21.60
2022-11-16T21:17:23.076Z,14.90
2022-11-16T21:19:36.889Z,10.70
2022-11-16T21:21:50.146Z,18.30
2022-11-16T21:24:03.564Z,23.00
2022-11-16T21:26:17.956Z,11.30
2022-11-16T21:28:31.250Z,13.20
2022-11-16T21:30:44.490Z,29.70
2022-11-16T21:32:57.827Z,19.20
2022-11-16T21:35:12.823Z,14.80
2022-11-16T21:37:25.998Z,17.00
2022-11-16T21:39:39.204Z,12.80
2022-11-16T21:41:52.400Z,19.30
2022-11-16T21:44:05.624Z,19.50
2022-11-16T21:46:20.076Z,22.40
2022-11-16T21:48:34.218Z,32.20
2022-11-16T21:50:48.739Z,27.90
2022-11-16T21:53:02.096Z,20.40
2022-11-16T21:55:15.881Z,11.40
2022-11-16T21:57:29.168Z,27.00
2022-11-16T21:59:45.427Z,25.80
2022-11-16T22:02:04.803Z,25.90
2022-11-16T22:04:34.486Z,15.80
2022-11-16T22:07:04.079Z,20.20
2022-11-16T22:09:18.119Z,19.80
2022-11-16T22:11:31.566Z,17.30
2022-11-16T22:13:45.385Z,15.70
2022-11-16T22:15:59.024Z,29.10
2022-11-16T22:18:12.409Z,12.40
2022-11-16T22:20:26.137Z,26.30
2022-11-16T22:22:39.413Z,32.60
2022-11-16T22:24:52.740Z,15.30
2022-11-16T22:27:06.274Z,27.40
2022-11-16T22:29:19.508Z,32.60
2022-11-16T22:31:33.836Z,37.40
2022-11-16T22:33:47.257Z,29.40
2022-11-16T22:36:00.371Z,33.60
2022-11-16T22:38:13.528Z,24.20
2022-11-16T22:40:26.838Z,28.30
2022-11-16T22:42:39.987Z,40.20
2022-11-16T22:44:53.150Z,44.50
2022-11-16T22:47:06.733Z,28.30
2022-11-16T22:49:20.054Z,20.60
2022-11-16T22:51:34.124Z,18.90
2022-11-16T22:53:47.296Z,10.50
2022-11-16T22:56:06.105Z,17.10
2022-11-16T22:58:19.282Z,25.20
2022-11-16T23:00:34.191Z,17.70
2022-11-16T23:02:49.615Z,27.00
2022-11-16T23:05:02.879Z,19.40
2022-11-16T23:07:16.146Z,28.40
2022-11-16T23:09:29.518Z,19.80
2022-11-16T23:11:59.221Z,18.10
2022-11-16T23:14:33.009Z,18.30
2022-11-16T23:16:47.567Z,21.00
2022-11-16T23:19:01.437Z,26.20
2022-11-16T23:21:31.658Z,19.80
2022-11-16T23:24:06.574Z,32.60
2022-11-16T23:26:43.753Z,32.50
2022-11-16T23:28:56.980Z,33.80
2022-11-16T23:31:10.319Z,41.70
2022-11-16T23:33:45.641Z,26.00
2022-11-16T23:35:59.247Z,39.00
2022-11-16T23:38:13.597Z,27.60
2022-11-16T23:40:29.147Z,32.50
2022-11-16T23:43:03.553Z,33.80
2022-11-16T23:45:22.278Z,30.20
2022-11-16T23:47:37.291Z,24.90
2022-11-16T23:49:50.592Z,48.80
2022-11-16T23:52:03.982Z,19.60
2022-11-16T23:54:17.242Z,32.90
2022-11-16T23:56:34.834Z,51.30
2022-11-16T23:58:52.464Z,59.10
